Time;durP1;ratioP1;P1;durP2;ratioP2;P2;SDS_P1;SDS_P2;PMS_P1;PMS_P2;Temp;Humidity;BMP_temperature;BMP_pressure;BME280_temperature;BME280_humidity;BME280_pressure;Samples;Min_cycle;Max_cycle;Signal;HPM_P1;HPM_P2
2022/04/10 00:02:24;;;;;;;3.20;1.67;;;8.00;33.70;;;;;;10355280;28;20227;-74
2022/04/10 00:07:27;;;;;;;2.03;1.67;;;8.00;33.80;;;;;;10351180;28;20304;-74
2022/04/10 00:12:34;;;;;;;2.07;1.60;;;8.00;33.50;;;;;;10356462;28;20226;-74
2022/04/10 00:17:39;;;;;;;2.10;1.90;;;7.90;33.60;;;;;;10354697;28;20230;-74
2022/04/10 00:22:43;;;;;;;3.60;2.10;;;7.80;33.40;;;;;;10343451;28;20238;-73
2022/04/10 00:27:46;;;;;;;2.30;2.07;;;7.70;33.30;;;;;;10350009;28;20241;-74
2022/04/10 00:32:52;;;;;;;2.77;1.93;;;7.70;33.30;;;;;;10350279;28;20592;-73
2022/04/10 00:37:55;;;;;;;2.93;2.20;;;7.60;33.40;;;;;;10351926;28;20283;-73
2022/04/10 00:42:59;;;;;;;2.47;2.27;;;7.60;33.30;;;;;;10346985;28;20233;-74
2022/04/10 00:48:03;;;;;;;4.30;2.40;;;7.50;33.30;;;;;;10344230;28;20230;-73
2022/04/10 00:53:07;;;;;;;2.90;2.60;;;7.50;33.40;;;;;;10356736;28;20229;-73
2022/04/10 00:58:11;;;;;;;3.67;2.40;;;7.50;34.00;;;;;;10356578;28;20589;-73
2022/04/10 01:03:15;;;;;;;3.40;2.40;;;7.50;33.20;;;;;;10352805;28;20235;-73
2022/04/10 01:08:20;;;;;;;3.43;2.37;;;7.40;33.20;;;;;;10355579;28;20230;-73
2022/04/10 01:13:24;;;;;;;2.63;2.20;;;7.40;33.20;;;;;;10355777;28;20235;-73
2022/04/10 01:18:29;;;;;;;3.23;2.40;;;7.40;33.20;;;;;;10354090;28;20239;-73
2022/04/10 01:23:34;;;;;;;3.23;2.30;;;7.40;33.30;;;;;;10362615;28;20593;-73
2022/04/10 01:28:37;;;;;;;3.63;2.17;;;7.40;33.40;;;;;;10363020;28;20226;-73
2022/04/10 01:33:40;;;;;;;2.37;2.10;;;7.40;33.40;;;;;;10354359;28;20218;-73
2022/04/10 01:38:46;;;;;;;4.20;2.30;;;7.40;33.40;;;;;;10358087;28;20237;-73
2022/04/10 01:43:50;;;;;;;3.90;2.40;;;7.30;33.40;;;;;;10363462;28;20230;-73
2022/04/10 01:48:53;;;;;;;4.87;2.00;;;7.30;33.40;;;;;;10358049;28;20227;-73
2022/04/10 01:53:58;;;;;;;2.37;2.07;;;7.30;33.30;;;;;;10353463;28;20230;-73
2022/04/10 01:59:02;;;;;;;3.20;2.20;;;7.20;33.30;;;;;;10358107;28;20225;-73
2022/04/10 02:04:06;;;;;;;3.27;2.10;;;7.20;33.40;;;;;;10351238;28;20244;-73
2022/04/10 02:09:10;;;;;;;2.60;2.00;;;7.20;33.40;;;;;;10357176;28;20605;-73
2022/04/10 02:14:14;;;;;;;3.87;2.50;;;7.20;33.60;;;;;;10360034;28;20305;-73
2022/04/10 02:19:17;;;;;;;3.63;2.47;;;7.20;33.40;;;;;;10354943;28;20245;-73
2022/04/10 02:24:22;;;;;;;3.47;2.37;;;7.20;33.40;;;;;;10350068;28;20242;-73
2022/04/10 02:29:25;;;;;;;2.83;2.30;;;7.10;33.50;;;;;;10350693;28;20223;-74
2022/04/10 02:34:28;;;;;;;3.07;2.43;;;7.10;33.50;;;;;;10351564;28;20647;-73
2022/04/10 02:39:33;;;;;;;2.43;2.13;;;7.00;33.40;;;;;;10352882;28;20230;-73
2022/04/10 02:44:36;;;;;;;2.77;2.10;;;7.00;33.80;;;;;;10352886;28;20234;-73
2022/04/10 02:49:39;;;;;;;2.43;2.20;;;7.00;33.70;;;;;;10353892;28;20845;-73
2022/04/10 02:54:44;;;;;;;3.63;2.47;;;6.90;33.80;;;;;;10356124;28;20230;-73
2022/04/10 02:59:47;;;;;;;2.73;2.30;;;6.80;33.90;;;;;;10348053;28;20231;-73
2022/04/10 03:04:50;;;;;;;2.83;2.30;;;6.80;33.80;;;;;;10356154;28;20230;-73
2022/04/10 03:09:55;;;;;;;3.90;2.57;;;6.70;34.10;;;;;;10363245;28;20614;-73
2022/04/10 03:14:58;;;;;;;3.17;2.37;;;6.70;34.60;;;;;;10353333;28;20237;-73
2022/04/10 03:20:01;;;;;;;3.93;2.40;;;6.70;34.40;;;;;;10357249;28;20734;-73
2022/04/10 03:25:07;;;;;;;3.87;2.40;;;6.70;34.50;;;;;;10348758;28;20218;-73
2022/04/10 03:30:11;;;;;;;2.93;2.40;;;6.60;34.80;;;;;;10356390;28;20709;-73
2022/04/10 03:35:15;;;;;;;3.07;2.37;;;6.60;34.80;;;;;;10346851;28;20262;-73
2022/04/10 03:40:19;;;;;;;3.13;2.40;;;6.60;34.80;;;;;;10348449;28;20235;-73
2022/04/10 03:45:25;;;;;;;2.67;2.47;;;6.60;35.10;;;;;;10352203;28;20249;-73
2022/04/10 03:50:28;;;;;;;2.40;2.20;;;6.60;34.90;;;;;;10353981;28;20233;-73
2022/04/10 03:55:33;;;;;;;3.00;2.70;;;6.60;34.90;;;;;;10350546;28;20230;-73
2022/04/10 04:00:36;;;;;;;3.30;2.70;;;6.60;35.10;;;;;;10352956;28;20233;-73
2022/04/10 04:05:40;;;;;;;3.60;2.43;;;6.60;34.80;;;;;;10347264;28;20226;-73
2022/04/10 04:10:44;;;;;;;3.33;2.53;;;6.50;34.80;;;;;;10353887;28;20237;-73
2022/04/10 04:15:47;;;;;;;2.70;2.43;;;6.50;35.10;;;;;;10354833;28;20237;-74
2022/04/10 04:20:51;;;;;;;3.67;2.47;;;6.50;34.90;;;;;;10348276;28;20233;-74
2022/04/10 04:25:56;;;;;;;3.17;2.43;;;6.50;35.00;;;;;;10362458;28;20752;-74
2022/04/10 04:30:59;;;;;;;2.57;2.37;;;6.40;35.30;;;;;;10361212;28;20580;-74
2022/04/10 04:36:03;;;;;;;2.60;2.40;;;6.40;35.10;;;;;;10360111;28;20292;-74
2022/04/10 04:41:10;;;;;;;3.13;2.70;;;6.40;35.10;;;;;;10365208;28;20233;-74
2022/04/10 04:46:13;;;;;;;4.50;2.67;;;6.40;35.40;;;;;;10352846;28;20227;-74
2022/04/10 04:51:17;;;;;;;3.07;2.77;;;6.40;35.20;;;;;;10359683;28;20272;-74
2022/04/10 04:56:21;;;;;;;3.00;2.73;;;6.40;35.30;;;;;;10352998;28;20234;-74
2022/04/10 05:01:24;;;;;;;3.00;2.70;;;6.40;35.50;;;;;;10346701;28;20231;-74
2022/04/10 05:06:27;;;;;;;3.10;2.80;;;6.40;35.30;;;;;;10345617;28;20231;-74
2022/04/10 05:11:32;;;;;;;3.23;2.67;;;6.40;35.50;;;;;;10341377;28;20247;-74
2022/04/10 05:16:35;;;;;;;3.07;2.83;;;6.40;35.80;;;;;;10349377;28;20664;-73
2022/04/10 05:21:38;;;;;;;3.37;3.00;;;6.50;35.70;;;;;;10345450;28;20907;-73
2022/04/10 05:26:43;;;;;;;3.17;2.80;;;6.50;35.60;;;;;;10354665;28;20232;-73
2022/04/10 05:31:46;;;;;;;2.83;2.63;;;6.50;35.80;;;;;;10354552;28;20233;-74
2022/04/10 05:36:49;;;;;;;3.63;2.67;;;6.50;35.70;;;;;;10346680;28;20428;-74
2022/04/10 05:41:54;;;;;;;3.50;2.63;;;6.60;35.70;;;;;;10343782;28;20763;-74
2022/04/10 05:46:58;;;;;;;2.93;2.73;;;6.50;35.80;;;;;;10342901;28;20234;-74
2022/04/10 05:52:01;;;;;;;3.90;3.03;;;6.60;35.70;;;;;;10343196;28;20230;-73
2022/04/10 05:57:11;;;;;;;2.93;2.60;;;6.60;36.60;;;;;;10342186;28;20251;-74
2022/04/10 06:02:14;;;;;;;4.20;3.13;;;6.60;36.10;;;;;;10350937;28;20242;-74
2022/04/10 06:07:18;;;;;;;3.53;3.23;;;6.60;35.80;;;;;;10361468;28;20740;-74
2022/04/10 06:12:22;;;;;;;3.37;3.00;;;6.60;36.00;;;;;;10355825;28;20239;-74
2022/04/10 06:17:25;;;;;;;4.00;3.57;;;6.60;36.20;;;;;;10354514;28;20238;-75
2022/04/10 06:22:28;;;;;;;4.47;4.07;;;6.60;36.10;;;;;;10352341;28;20222;-75
2022/04/10 06:27:33;;;;;;;4.63;3.77;;;6.60;36.10;;;;;;10350931;28;20242;-75
2022/04/10 06:32:36;;;;;;;4.17;3.57;;;6.70;36.30;;;;;;10363460;28;20231;-75
2022/04/10 06:37:39;;;;;;;5.27;3.80;;;6.70;36.10;;;;;;10356253;28;20226;-75
2022/04/10 06:42:44;;;;;;;4.90;3.70;;;6.80;36.20;;;;;;10355262;28;20233;-75
2022/04/10 06:47:47;;;;;;;4.30;3.87;;;6.90;36.50;;;;;;10352219;28;20226;-76
2022/04/10 06:52:50;;;;;;;4.30;3.93;;;6.90;36.50;;;;;;10345805;28;20314;-77
2022/04/10 06:57:55;;;;;;;3.97;3.53;;;6.90;36.50;;;;;;10351166;28;20731;-75
2022/04/10 07:03:01;;;;;;;3.90;3.50;;;7.00;36.80;;;;;;10351565;28;20222;-77
2022/04/10 07:08:05;;;;;;;4.37;3.97;;;7.10;36.70;;;;;;10359216;28;20612;-77
2022/04/10 07:13:10;;;;;;;4.50;4.10;;;7.20;36.60;;;;;;10359660;28;20599;-77
2022/04/10 07:18:13;;;;;;;4.73;4.33;;;7.30;37.00;;;;;;10366422;28;20577;-78
2022/04/10 07:28:38;;;;;;;5.47;4.97;;;7.50;36.40;;;;;;10360592;28;20236;-76
2022/04/10 07:33:42;;;;;;;6.03;5.43;;;7.50;36.20;;;;;;10352779;28;20226;-76
2022/04/10 07:38:45;;;;;;;6.33;5.70;;;7.50;36.20;;;;;;10358562;28;20227;-77
2022/04/10 07:43:50;;;;;;;5.90;5.40;;;7.60;36.30;;;;;;10356754;28;20226;-77
2022/04/10 07:48:53;;;;;;;6.47;5.87;;;7.60;36.20;;;;;;10353677;28;20234;-77
2022/04/10 07:53:57;;;;;;;6.33;5.73;;;7.70;36.20;;;;;;10351927;28;20230;-76
2022/04/10 07:59:02;;;;;;;6.27;5.70;;;7.80;36.50;;;;;;10367824;28;20624;-76
2022/04/10 08:04:05;;;;;;;5.70;5.20;;;7.90;36.50;;;;;;10359159;28;20226;-74
2022/04/10 08:09:09;;;;;;;5.33;4.83;;;8.00;36.60;;;;;;10356286;28;20240;-75
2022/04/10 08:14:15;;;;;;;5.07;4.67;;;8.20;36.10;;;;;;10354621;28;20640;-77
2022/04/10 08:19:18;;;;;;;5.30;4.70;;;8.30;35.90;;;;;;10357101;28;20230;-77
2022/04/10 08:24:21;;;;;;;5.27;4.77;;;8.50;36.00;;;;;;10360134;28;20234;-76
2022/04/10 08:29:26;;;;;;;5.43;4.93;;;8.70;35.70;;;;;;10350875;28;20728;-76
2022/04/10 08:34:29;;;;;;;4.87;4.43;;;8.80;35.30;;;;;;10365124;28;20611;-74
2022/04/10 08:39:32;;;;;;;4.97;4.47;;;9.00;35.30;;;;;;10358943;28;20227;-75
2022/04/10 08:44:37;;;;;;;5.40;4.90;;;9.10;34.80;;;;;;10361200;28;20231;-75
2022/04/10 08:49:41;;;;;;;5.50;4.67;;;9.10;34.70;;;;;;10357205;28;20293;-76
2022/04/10 08:54:44;;;;;;;5.67;5.17;;;9.10;34.40;;;;;;10357339;28;20231;-74
2022/04/10 08:59:49;;;;;;;4.63;4.23;;;9.00;34.40;;;;;;10362980;28;20226;-74
2022/04/10 09:04:52;;;;;;;4.73;4.33;;;9.00;34.50;;;;;;10352147;28;20223;-74
2022/04/10 09:09:57;;;;;;;4.73;3.93;;;8.90;34.00;;;;;;10355995;28;20687;-74
2022/04/10 09:15:05;;;;;;;7.00;3.80;;;8.90;34.40;;;;;;10366961;28;20226;-74
2022/04/10 09:20:10;;;;;;;4.37;3.80;;;8.90;33.40;;;;;;10358550;28;20230;-75
2022/04/10 09:25:16;;;;;;;4.10;3.33;;;8.90;33.80;;;;;;10366798;28;20702;-74
2022/04/10 09:30:22;;;;;;;3.27;2.97;;;9.00;34.10;;;;;;10365820;28;20226;-74
2022/04/10 09:35:25;;;;;;;3.40;2.97;;;9.20;33.10;;;;;;10353730;28;20234;-75
2022/04/10 09:40:30;;;;;;;3.80;2.93;;;9.30;31.80;;;;;;10361078;28;20234;-75
2022/04/10 09:45:38;;;;;;;3.40;3.10;;;9.40;31.90;;;;;;10364810;28;20722;-75
2022/04/10 09:50:41;;;;;;;3.40;2.90;;;9.40;31.90;;;;;;10351416;28;20245;-74
2022/04/10 09:55:45;;;;;;;4.73;2.90;;;9.50;32.00;;;;;;10360456;28;20222;-74
2022/04/10 10:00:53;;;;;;;3.97;2.40;;;9.50;31.90;;;;;;10360105;28;20878;-76
2022/04/10 10:05:59;;;;;;;3.37;2.73;;;9.60;32.50;;;;;;10361133;28;20238;-75
2022/04/10 10:11:02;;;;;;;2.43;2.23;;;9.70;31.40;;;;;;10356855;28;20240;-73
2022/04/10 10:16:08;;;;;;;5.40;2.37;;;9.80;31.20;;;;;;10351810;28;20226;-73
2022/04/10 10:21:14;;;;;;;4.17;2.60;;;9.90;30.70;;;;;;10341953;28;20223;-73
2022/04/10 10:26:44;;;;;;;4.13;2.63;;;10.00;30.70;;;;;;10342371;28;20227;-73
2022/04/10 10:32:02;;;;;;;3.60;2.40;;;10.00;29.80;;;;;;10360105;28;20236;-73
2022/04/10 10:37:05;;;;;;;4.10;2.60;;;10.10;29.70;;;;;;10358538;28;20233;-73
2022/04/10 10:42:13;;;;;;;3.20;2.50;;;10.20;30.00;;;;;;10350631;28;20238;-73
2022/04/10 10:47:23;;;;;;;3.10;2.23;;;10.30;28.50;;;;;;10367280;28;20230;-73
2022/04/10 10:52:29;;;;;;;3.30;2.40;;;10.30;28.20;;;;;;10357630;28;20232;-73
2022/04/10 10:57:39;;;;;;;2.43;2.23;;;10.30;29.30;;;;;;10353442;28;20236;-73
2022/04/10 11:02:50;;;;;;;3.27;2.60;;;10.40;29.60;;;;;;10365812;28;20249;-73
2022/04/10 11:07:58;;;;;;;3.23;2.50;;;10.50;29.40;;;;;;10360922;28;20229;-73
2022/04/10 11:13:03;;;;;;;4.33;2.40;;;10.60;28.80;;;;;;10352358;28;20226;-73
2022/04/10 11:18:34;;;;;;;2.93;2.40;;;10.70;29.20;;;;;;10367298;28;20234;-73
2022/04/10 11:23:41;;;;;;;2.87;2.27;;;10.80;28.90;;;;;;10358353;28;20230;-73
2022/04/10 11:28:55;;;;;;;4.57;3.70;;;10.90;28.90;;;;;;10351639;28;20226;-73
2022/04/10 11:34:12;;;;;;;2.30;2.07;;;10.90;27.40;;;;;;10353900;28;20296;-73
2022/04/10 11:39:16;;;;;;;3.37;2.47;;;10.90;27.00;;;;;;10357155;28;20225;-73
2022/04/10 11:44:19;;;;;;;2.57;2.20;;;10.80;28.80;;;;;;10358510;28;20708;-73
2022/04/10 11:49:24;;;;;;;2.70;2.30;;;10.90;28.90;;;;;;10365701;28;20227;-73
2022/04/10 11:54:31;;;;;;;2.53;2.00;;;10.80;28.40;;;;;;10354529;28;21175;-73
2022/04/10 11:59:36;;;;;;;2.83;2.47;;;10.80;28.40;;;;;;10343240;28;20691;-73
2022/04/10 12:04:42;;;;;;;3.00;2.30;;;10.80;28.90;;;;;;10359646;28;20547;-73
2022/04/10 12:09:48;;;;;;;2.30;2.10;;;10.80;28.30;;;;;;10362499;28;20232;-73
2022/04/10 12:14:51;;;;;;;3.13;2.23;;;10.80;28.90;;;;;;10357389;28;20234;-73
2022/04/10 12:19:57;;;;;;;3.57;2.67;;;10.90;28.90;;;;;;10363296;28;20227;-73
2022/04/10 12:25:01;;;;;;;4.60;2.50;;;11.00;29.00;;;;;;10358375;28;20764;-73
2022/04/10 12:30:10;;;;;;;2.73;2.50;;;11.10;28.60;;;;;;10357331;28;20651;-73
2022/04/10 12:35:16;;;;;;;2.80;2.50;;;11.10;28.00;;;;;;10354477;28;20234;-74
2022/04/10 12:40:27;;;;;;;3.57;2.40;;;11.20;28.30;;;;;;10360121;28;20652;-73
2022/04/10 12:45:31;;;;;;;2.73;2.33;;;11.10;27.80;;;;;;10359357;28;20227;-73
2022/04/10 12:50:36;;;;;;;4.20;2.60;;;11.00;28.60;;;;;;10359826;28;20226;-72
2022/04/10 12:55:39;;;;;;;2.40;1.90;;;10.90;28.90;;;;;;10358203;28;20230;-73
2022/04/10 13:00:46;;;;;;;5.37;2.93;;;10.60;29.20;;;;;;10361301;28;20871;-73
2022/04/10 13:05:58;;;;;;;2.83;2.40;;;10.50;29.80;;;;;;10357909;28;20602;-72
2022/04/10 13:11:02;;;;;;;3.53;2.33;;;10.30;30.00;;;;;;10362345;28;20651;-72
2022/04/10 13:16:29;;;;;;;3.63;2.60;;;10.20;30.40;;;;;;10364904;28;20698;-72
2022/04/10 13:21:35;;;;;;;2.53;2.33;;;10.20;30.90;;;;;;10364899;28;20226;-72
2022/04/10 13:26:41;;;;;;;4.93;2.50;;;10.30;31.70;;;;;;10366443;28;20241;-72
2022/04/10 13:31:44;;;;;;;2.60;2.27;;;10.30;31.20;;;;;;10363848;28;20693;-72
2022/04/10 13:36:48;;;;;;;3.23;2.70;;;10.50;31.40;;;;;;10352722;28;20505;-73
2022/04/10 13:41:52;;;;;;;3.47;2.47;;;10.60;31.00;;;;;;10359103;28;20226;-73
2022/04/10 13:46:55;;;;;;;2.47;1.97;;;10.80;30.40;;;;;;10367125;28;20605;-73
2022/04/10 13:52:01;;;;;;;5.10;2.33;;;10.90;29.80;;;;;;10371146;28;20222;-73
2022/04/10 13:57:11;;;;;;;3.13;2.47;;;11.00;29.00;;;;;;10364890;28;20229;-73
2022/04/10 14:02:14;;;;;;;2.97;2.30;;;11.10;29.40;;;;;;10374444;28;20225;-73
2022/04/10 14:07:19;;;;;;;3.53;2.60;;;11.10;29.10;;;;;;10366377;28;20241;-73
2022/04/10 14:12:23;;;;;;;3.20;2.80;;;11.20;28.20;;;;;;10364793;28;20230;-73
2022/04/10 14:17:26;;;;;;;2.73;2.50;;;11.30;28.20;;;;;;10376529;28;20234;-73
2022/04/10 14:22:31;;;;;;;2.97;2.63;;;11.30;28.00;;;;;;10362400;28;20620;-73
2022/04/10 14:27:34;;;;;;;3.37;2.50;;;11.30;27.60;;;;;;10360095;28;20763;-73
2022/04/10 14:32:39;;;;;;;3.83;2.50;;;11.20;28.50;;;;;;10362404;28;20222;-73
2022/04/10 14:37:43;;;;;;;3.13;2.30;;;11.30;28.60;;;;;;10354453;28;20248;-74
2022/04/10 14:42:47;;;;;;;2.80;2.60;;;11.30;28.70;;;;;;10361192;28;20222;-74
2022/04/10 14:47:50;;;;;;;3.57;2.90;;;11.30;29.00;;;;;;10348391;28;20230;-73
2022/04/10 14:52:56;;;;;;;3.23;2.70;;;11.30;28.80;;;;;;10360249;28;21149;-73
2022/04/10 14:57:59;;;;;;;3.43;3.13;;;11.20;29.10;;;;;;10358102;28;20230;-73
2022/04/10 15:03:03;;;;;;;4.27;3.47;;;11.20;29.10;;;;;;10361578;28;20427;-73
2022/04/10 15:08:08;;;;;;;3.13;2.80;;;11.20;29.10;;;;;;10361363;28;20230;-73
2022/04/10 15:13:13;;;;;;;3.67;2.80;;;11.20;29.10;;;;;;10334665;28;20226;-73
2022/04/10 15:18:16;;;;;;;4.93;2.90;;;11.30;29.20;;;;;;10360835;28;20237;-73
2022/04/10 15:23:21;;;;;;;4.57;4.17;;;11.30;29.20;;;;;;10353816;28;20228;-73
2022/04/10 15:28:24;;;;;;;4.37;3.30;;;11.40;29.30;;;;;;10367836;28;20234;-73
2022/04/10 15:33:28;;;;;;;4.57;3.33;;;11.50;29.10;;;;;;10354331;28;20237;-73
2022/04/10 15:38:32;;;;;;;4.00;3.10;;;11.50;28.80;;;;;;10356953;28;20234;-73
2022/04/10 15:43:36;;;;;;;3.13;2.87;;;11.50;28.80;;;;;;10348429;28;20725;-73
2022/04/10 15:48:39;;;;;;;4.13;2.90;;;11.50;29.20;;;;;;10356048;28;20230;-73
2022/04/10 15:53:44;;;;;;;2.80;2.50;;;11.40;29.20;;;;;;10358605;28;20609;-73
2022/04/10 15:58:48;;;;;;;2.80;2.60;;;11.40;29.00;;;;;;10349768;28;20230;-73
2022/04/10 16:03:51;;;;;;;2.90;2.60;;;11.50;29.40;;;;;;10357590;28;20226;-73
2022/04/10 16:08:57;;;;;;;3.07;2.60;;;11.50;29.40;;;;;;10361000;28;20296;-73
2022/04/10 16:14:00;;;;;;;3.70;3.13;;;11.50;29.00;;;;;;10354266;28;20226;-73
2022/04/10 16:19:04;;;;;;;3.20;2.90;;;11.50;29.40;;;;;;10360369;28;20644;-73
2022/04/10 16:24:08;;;;;;;4.30;3.53;;;11.50;29.30;;;;;;10367345;28;20226;-73
2022/04/10 16:34:32;;;;;;;5.03;3.10;;;11.50;29.40;;;;;;10368631;28;20226;-73
2022/04/10 16:39:37;;;;;;;3.73;3.20;;;11.40;29.20;;;;;;10370155;28;20227;-73
2022/04/10 16:44:40;;;;;;;3.57;3.10;;;11.30;29.20;;;;;;10355211;28;20218;-73
2022/04/10 16:49:43;;;;;;;3.10;2.90;;;11.20;29.10;;;;;;10360494;28;20227;-73
2022/04/10 16:54:50;;;;;;;3.30;2.93;;;11.10;29.10;;;;;;10367416;28;20233;-73
2022/04/10 16:59:54;;;;;;;4.07;3.10;;;11.00;29.00;;;;;;10361351;28;20227;-73
2022/04/10 17:04:57;;;;;;;3.40;3.10;;;10.90;29.10;;;;;;10354952;28;20218;-73
2022/04/10 17:10:02;;;;;;;2.90;2.70;;;10.90;29.40;;;;;;10365904;28;20232;-73
2022/04/10 17:15:06;;;;;;;6.13;3.07;;;10.90;29.60;;;;;;10359237;28;20694;-73
2022/04/10 17:20:10;;;;;;;3.20;2.90;;;10.90;29.50;;;;;;10368945;28;20230;-73
2022/04/10 17:25:15;;;;;;;3.30;3.00;;;10.80;29.50;;;;;;10360086;28;20650;-73
2022/04/10 17:30:18;;;;;;;4.93;2.97;;;10.80;29.40;;;;;;10364038;28;20222;-73
2022/04/10 17:35:21;;;;;;;6.07;2.70;;;10.70;29.50;;;;;;10356006;28;20235;-73
2022/04/10 17:40:26;;;;;;;5.20;2.97;;;10.60;29.60;;;;;;10359216;28;20230;-73
2022/04/10 17:45:29;;;;;;;3.40;2.90;;;10.60;29.60;;;;;;10362515;28;20740;-73
2022/04/10 17:50:32;;;;;;;3.53;2.80;;;10.60;29.70;;;;;;10351104;28;20226;-73
2022/04/10 17:55:37;;;;;;;4.23;2.93;;;10.60;29.70;;;;;;10360003;28;20235;-73
2022/04/10 18:00:40;;;;;;;6.73;3.10;;;10.60;29.70;;;;;;10355627;28;20220;-73
2022/04/10 18:05:44;;;;;;;3.20;2.47;;;10.50;29.70;;;;;;10360241;28;20226;-73
2022/04/10 18:10:48;;;;;;;3.43;2.93;;;10.50;29.70;;;;;;10355832;28;20226;-73
2022/04/10 18:15:52;;;;;;;4.87;3.37;;;10.50;29.70;;;;;;10355924;28;20230;-73
2022/04/10 18:20:55;;;;;;;4.03;3.20;;;10.40;29.80;;;;;;10357415;28;20226;-73
2022/04/10 18:26:01;;;;;;;3.23;2.93;;;10.40;29.90;;;;;;10352483;28;20230;-73
2022/04/10 18:31:04;;;;;;;3.33;2.97;;;10.40;29.90;;;;;;10358183;28;20725;-73
2022/04/10 18:36:07;;;;;;;4.07;3.60;;;10.40;29.90;;;;;;10351696;28;20226;-73
2022/04/10 18:41:12;;;;;;;3.77;3.33;;;10.30;29.80;;;;;;10351580;28;20260;-73
2022/04/10 18:46:15;;;;;;;3.53;3.00;;;10.30;30.00;;;;;;10363497;28;20234;-73
2022/04/10 18:51:18;;;;;;;4.27;2.97;;;10.30;30.00;;;;;;10356780;28;20645;-73
2022/04/10 18:56:23;;;;;;;3.37;2.60;;;10.40;30.00;;;;;;10354112;28;20245;-73
2022/04/10 19:01:26;;;;;;;3.10;2.90;;;10.40;30.00;;;;;;10360284;28;20222;-73
2022/04/10 19:06:30;;;;;;;2.77;2.37;;;10.30;30.00;;;;;;10357508;28;20234;-73
2022/04/10 19:11:34;;;;;;;2.70;2.47;;;10.30;29.90;;;;;;10365991;28;20546;-73
2022/04/10 19:16:38;;;;;;;3.80;3.17;;;10.30;30.00;;;;;;10351497;28;20463;-73
2022/04/10 19:21:41;;;;;;;3.83;3.30;;;10.30;29.90;;;;;;10356351;28;20345;-73
2022/04/10 19:26:45;;;;;;;4.13;3.50;;;10.30;29.80;;;;;;10354005;28;20227;-73
2022/04/10 19:31:49;;;;;;;3.97;3.23;;;10.30;30.40;;;;;;10345469;28;20691;-73
2022/04/10 19:36:53;;;;;;;6.70;5.97;;;10.10;29.80;;;;;;10348254;28;20222;-73
2022/04/10 19:41:58;;;;;;;6.20;5.57;;;10.10;30.00;;;;;;10360168;28;20229;-73
2022/04/10 19:47:01;;;;;;;6.33;5.20;;;10.00;30.00;;;;;;10357521;28;20233;-73
2022/04/10 19:52:05;;;;;;;7.67;6.97;;;10.00;30.00;;;;;;10351814;28;20236;-73
2022/04/10 19:57:10;;;;;;;4.57;4.17;;;9.90;30.90;;;;;;10352569;28;20729;-73
2022/04/10 20:02:13;;;;;;;5.03;4.40;;;9.90;30.90;;;;;;10353798;28;20237;-73
2022/04/10 20:07:16;;;;;;;5.57;4.67;;;9.90;31.00;;;;;;10360794;28;20230;-73
2022/04/10 20:12:20;;;;;;;12.10;9.87;;;9.80;30.90;;;;;;10359246;28;20233;-73
2022/04/10 20:17:24;;;;;;;8.07;7.10;;;9.70;30.80;;;;;;10361466;28;20256;-74
2022/04/10 20:22:27;;;;;;;30.67;16.67;;;9.50;30.80;;;;;;10353472;28;20747;-73
2022/04/10 20:27:31;;;;;;;41.03;23.40;;;9.40;31.10;;;;;;10365875;28;20229;-73
2022/04/10 20:32:35;;;;;;;44.23;27.33;;;9.40;31.40;;;;;;10352106;28;20232;-73
2022/04/10 20:37:38;;;;;;;35.83;22.00;;;9.40;31.50;;;;;;10347364;28;20227;-73
2022/04/10 20:42:43;;;;;;;19.60;12.57;;;9.40;31.50;;;;;;10355466;28;20233;-73
2022/04/10 20:47:46;;;;;;;17.90;11.07;;;9.40;31.70;;;;;;10346282;28;20235;-73
2022/04/10 20:52:49;;;;;;;19.10;11.23;;;9.30;31.40;;;;;;10358729;28;20698;-73
2022/04/10 20:57:54;;;;;;;14.97;9.47;;;9.30;31.30;;;;;;10354785;28;20761;-73
2022/04/10 21:02:57;;;;;;;13.67;8.97;;;9.30;31.60;;;;;;10349805;28;20231;-73
2022/04/10 21:08:00;;;;;;;16.37;10.40;;;9.30;31.70;;;;;;10363487;28;20223;-73
2022/04/10 21:13:05;;;;;;;27.47;14.10;;;9.30;31.70;;;;;;10358943;28;20225;-73
2022/04/10 21:18:08;;;;;;;22.63;13.53;;;9.30;31.80;;;;;;10351728;28;20292;-73
2022/04/10 21:23:11;;;;;;;23.57;12.43;;;9.30;31.70;;;;;;10371454;28;20237;-74
2022/04/10 21:28:16;;;;;;;17.43;11.43;;;9.30;31.70;;;;;;10358321;28;21368;-73
2022/04/10 21:33:20;;;;;;;19.90;12.43;;;9.30;31.70;;;;;;10364430;28;20233;-73
2022/04/10 21:38:23;;;;;;;13.03;7.67;;;9.20;31.80;;;;;;10361301;28;20786;-73
2022/04/10 21:43:27;;;;;;;10.00;7.03;;;9.20;31.90;;;;;;10361675;28;20234;-73
2022/04/10 21:48:30;;;;;;;11.67;7.43;;;9.20;32.10;;;;;;10359056;28;20600;-73
2022/04/10 21:53:34;;;;;;;7.57;5.63;;;9.20;32.00;;;;;;10358004;28;20234;-74
2022/04/10 21:58:39;;;;;;;9.43;7.00;;;9.20;32.10;;;;;;10358362;28;20253;-73
2022/04/10 22:03:42;;;;;;;8.13;5.70;;;9.20;32.30;;;;;;10362410;28;20238;-73
2022/04/10 22:08:45;;;;;;;7.13;5.17;;;9.30;32.20;;;;;;10360221;28;20241;-74
2022/04/10 22:13:49;;;;;;;7.53;5.33;;;9.30;32.20;;;;;;10361549;28;20222;-73
2022/04/10 22:18:52;;;;;;;7.03;5.53;;;9.30;32.40;;;;;;10365669;28;20241;-74
2022/04/10 22:23:56;;;;;;;5.60;5.00;;;9.30;32.30;;;;;;10366713;28;20233;-73
2022/04/10 22:29:00;;;;;;;4.77;4.03;;;9.30;32.30;;;;;;10362691;28;20250;-73
2022/04/10 22:34:03;;;;;;;5.43;4.50;;;9.20;32.30;;;;;;10352909;28;20222;-73
2022/04/10 22:39:06;;;;;;;6.77;4.77;;;9.10;32.30;;;;;;10351647;28;20231;-73
2022/04/10 22:44:11;;;;;;;7.03;4.43;;;9.10;32.40;;;;;;10366627;28;20226;-73
2022/04/10 22:49:14;;;;;;;4.07;3.67;;;9.10;32.70;;;;;;10351148;28;20237;-73
2022/04/10 22:54:17;;;;;;;4.73;4.20;;;9.10;32.60;;;;;;10359501;28;20710;-73
2022/04/10 22:59:22;;;;;;;4.37;3.97;;;9.10;32.50;;;;;;10355286;28;20235;-73
2022/04/10 23:04:25;;;;;;;4.23;3.83;;;9.10;32.60;;;;;;10350947;28;20233;-73
2022/04/10 23:09:28;;;;;;;4.23;3.80;;;9.00;32.50;;;;;;10359783;28;20227;-73
2022/04/10 23:14:32;;;;;;;4.13;3.43;;;9.00;32.40;;;;;;10363807;28;20226;-73
2022/04/10 23:19:35;;;;;;;4.80;4.30;;;8.90;32.50;;;;;;10358280;28;20231;-73
2022/04/10 23:24:39;;;;;;;5.07;4.23;;;8.90;32.30;;;;;;10352643;28;20235;-73
2022/04/10 23:29:43;;;;;;;5.00;4.50;;;8.80;32.10;;;;;;10347942;28;20233;-73
2022/04/10 23:34:46;;;;;;;5.97;4.40;;;8.60;32.20;;;;;;10355339;28;20729;-73
2022/04/10 23:39:49;;;;;;;5.27;4.33;;;8.50;32.00;;;;;;10359538;28;20238;-73
2022/04/10 23:44:54;;;;;;;4.80;4.30;;;8.30;32.00;;;;;;10352400;28;20233;-72
2022/04/10 23:49:57;;;;;;;4.53;4.13;;;8.10;32.30;;;;;;10355985;28;20221;-72
2022/04/10 23:55:00;;;;;;;4.20;3.90;;;8.10;32.20;;;;;;10352649;28;20232;-72
